Time;durP1;ratioP1;P1;durP2;ratioP2;P2;SDS_P1;SDS_P2;PMS_P1;PMS_P2;Temp;Humidity;BMP_temperature;BMP_pressure;BME280_temperature;BME280_humidity;BME280_pressure;Samples;Min_cycle;Max_cycle;Signal;HPM_P1;HPM_P2
2024/02/14 00:02:09;;;;;;;;;26.00;23.25;;;;;13.46;44.65;100580.34;146611;577;47020;-73
2024/02/14 00:05:06;;;;;;;;;12.00;11.00;;;;;13.50;44.75;100582.25;146609;576;46012;-70
2024/02/14 00:08:14;;;;;;;;;9.00;9.00;;;;;13.50;44.77;100587.47;146614;570;47010;-71
2024/02/14 00:11:25;;;;;;;;;8.25;6.75;;;;;13.49;46.20;100576.16;146619;572;46012;-70
2024/02/14 00:14:31;;;;;;;;;9.00;8.50;;;;;13.49;45.08;100583.97;146613;572;45021;-71
2024/02/14 00:17:31;;;;;;;;;4.75;3.75;;;;;13.48;45.35;100582.16;146612;640;46016;-71
2024/02/14 00:20:39;;;;;;;;;11.00;7.75;;;;;13.47;45.35;100588.22;146617;665;47046;-70
2024/02/14 00:23:34;;;;;;;;;8.75;6.75;;;;;13.43;44.42;100572.41;146613;578;47012;-70
2024/02/14 00:26:30;;;;;;;;;4.00;3.75;;;;;13.39;44.42;100579.22;146620;627;46020;-71
2024/02/14 00:29:34;;;;;;;;;10.00;7.00;;;;;13.37;44.59;100576.56;146616;637;47012;-74
2024/02/14 00:32:28;;;;;;;;;10.25;8.25;;;;;11.59;44.56;100269.72;146620;576;46020;-73
2024/02/14 00:35:35;;;;;;;;;8.50;6.50;;;;;13.39;44.43;100576.63;146613;633;46012;-66
2024/02/14 00:38:27;;;;;;;;;8.25;8.25;;;;;13.36;44.08;100576.50;146615;604;46020;-71
2024/02/14 00:41:27;;;;;;;;;6.25;4.00;;;;;13.31;44.24;100575.47;146617;592;46012;-69
2024/02/14 00:44:24;;;;;;;;;6.00;4.75;;;;;13.30;44.22;100568.47;146609;717;46012;-69
2024/02/14 00:47:31;;;;;;;;;6.00;5.75;;;;;13.27;45.27;100563.13;146612;643;46016;-71
2024/02/14 00:50:50;;;;;;;;;6.50;4.50;;;;;13.25;45.20;100552.69;146620;581;47011;-69
2024/02/14 00:53:45;;;;;;;;;6.25;6.25;;;;;13.24;44.54;100558.69;146613;611;46014;-72
2024/02/14 00:56:57;;;;;;;;;4.50;4.00;;;;;13.25;44.16;100560.50;146623;565;46011;-76
2024/02/14 00:59:55;;;;;;;;;11.25;9.25;;;;;13.21;44.21;100569.00;146617;597;46012;-74
2024/02/14 01:02:51;;;;;;;;;6.00;4.50;;;;;13.21;44.57;100558.56;146620;654;46020;-74
2024/02/14 01:05:48;;;;;;;;;5.75;5.75;;;;;13.20;44.86;100559.37;146619;637;46034;-71
2024/02/14 01:08:51;;;;;;;;;6.00;6.00;;;;;13.10;44.85;100547.75;146622;610;47010;-69
2024/02/14 01:11:46;;;;;;;;;4.75;4.75;;;;;13.06;44.18;100550.19;146608;583;47941;-74
2024/02/14 01:14:42;;;;;;;;;5.00;4.25;;;;;12.93;45.74;100564.44;146610;601;46018;-74
2024/02/14 01:17:38;;;;;;;;;5.00;5.00;;;;;12.87;45.88;100559.88;146617;660;46016;-76
2024/02/14 01:20:40;;;;;;;;;5.75;5.00;;;;;12.70;46.61;100530.56;146619;578;46021;-74
2024/02/14 01:23:36;;;;;;;;;7.25;4.25;;;;;12.81;45.55;100557.03;146607;699;47914;-69
2024/02/14 01:26:33;;;;;;;;;5.00;3.50;;;;;12.83;44.55;100552.75;146621;603;46030;-68
2024/02/14 01:29:30;;;;;;;;;7.50;7.50;;;;;12.89;44.13;100554.72;146614;571;47016;-69
2024/02/14 01:32:29;;;;;;;;;5.50;5.50;;;;;12.96;43.96;100554.16;146620;650;46010;-67
2024/02/14 01:35:37;;;;;;;;;5.75;5.75;;;;;13.03;43.60;100547.47;146616;579;47012;-66
2024/02/14 01:38:35;;;;;;;;;6.00;5.75;;;;;13.07;42.12;100559.75;146621;569;46020;-71
2024/02/14 01:41:34;;;;;;;;;6.50;5.00;;;;;13.14;43.04;100562.63;146614;564;47914;-75
2024/02/14 01:44:30;;;;;;;;;7.50;6.75;;;;;13.18;43.66;100576.69;146632;579;45010;-70
2024/02/14 01:47:44;;;;;;;;;7.75;7.75;;;;;13.21;45.27;100575.87;146632;740;45915;-70
2024/02/14 01:50:52;;;;;;;;;;;;;;;;;;;;;
2024/02/14 01:53:52;;;;;;;;;6.25;6.00;;;;;13.09;45.26;100564.19;146632;600;46016;-71
2024/02/14 01:57:08;;;;;;;;;6.50;5.50;;;;;13.15;45.28;100580.06;146636;610;45021;-72
2024/02/14 02:00:17;;;;;;;;;7.00;7.00;;;;;13.11;45.45;100566.84;146630;581;45016;-72
2024/02/14 02:03:17;;;;;;;;;7.25;7.00;;;;;13.06;45.54;100579.69;146634;596;46010;-70
2024/02/14 02:06:12;;;;;;;;;6.00;4.75;;;;;12.98;45.42;100562.87;146633;591;45016;-72
2024/02/14 02:09:07;;;;;;;;;8.50;6.25;;;;;12.93;45.75;100561.84;146636;595;45020;-66
2024/02/14 02:12:07;;;;;;;;;5.50;5.00;;;;;12.88;45.93;100578.97;146632;620;45017;-69
2024/02/14 02:15:09;;;;;;;;;7.75;7.75;;;;;12.82;45.59;100561.41;146630;570;46020;-68
2024/02/14 02:18:05;;;;;;;;;6.25;6.00;;;;;12.76;45.39;100557.66;146635;723;45012;-69
2024/02/14 02:21:12;;;;;;;;;6.00;6.00;;;;;12.72;45.63;100556.66;146636;581;45010;-71
2024/02/14 02:24:18;;;;;;;;;6.00;6.00;;;;;12.70;45.47;100556.59;146633;582;45917;-73
2024/02/14 02:27:17;;;;;;;;;5.75;5.00;;;;;12.66;44.82;100559.91;146637;608;45021;-71
2024/02/14 02:30:18;;;;;;;;;6.00;5.25;;;;;12.68;45.41;100554.78;146633;659;46016;-73
2024/02/14 02:33:29;;;;;;;;;7.50;7.00;;;;;12.68;45.77;100567.78;146639;575;45010;-71
2024/02/14 02:36:30;;;;;;;;;6.50;6.00;;;;;12.67;46.07;100573.78;146635;563;45014;-72
2024/02/14 02:39:25;;;;;;;;;5.00;4.00;;;;;12.62;45.77;100560.62;146627;563;46010;-69
2024/02/14 02:42:23;;;;;;;;;6.75;6.25;;;;;12.61;46.08;100581.34;146629;585;46014;-71
2024/02/14 02:45:18;;;;;;;;;8.75;7.50;;;;;12.59;46.04;100580.41;146607;583;47010;-70
2024/02/14 02:48:17;;;;;;;;;8.00;6.50;;;;;12.61;46.04;100586.53;146614;587;46915;-70
2024/02/14 02:51:15;;;;;;;;;5.50;4.50;;;;;12.60;45.66;100590.00;146622;620;46010;-72
2024/02/14 02:54:13;;;;;;;;;4.50;4.50;;;;;12.60;45.63;100588.28;146616;595;47012;-72
2024/02/14 02:57:27;;;;;;;;;4.00;4.00;;;;;12.61;45.41;100590.03;146618;594;47011;-70
2024/02/14 03:00:29;;;;;;;;;5.00;5.00;;;;;12.62;45.69;100597.03;146612;583;46012;-68
2024/02/14 03:03:33;;;;;;;;;6.00;6.00;;;;;12.64;45.58;100591.88;146621;720;46020;-70
2024/02/14 03:06:29;;;;;;;;;4.25;4.25;;;;;12.63;45.07;100585.78;146617;591;46012;-71
2024/02/14 03:09:28;;;;;;;;;5.50;5.00;;;;;12.57;44.80;100579.47;146620;568;46020;-69
2024/02/14 03:12:48;;;;;;;;;6.75;5.75;;;;;12.63;44.91;100580.59;146604;580;47917;-68
2024/02/14 03:15:49;;;;;;;;;6.75;6.00;;;;;12.64;45.20;100602.28;146613;631;46010;-69
2024/02/14 03:18:51;;;;;;;;;4.00;4.00;;;;;12.63;45.21;100598.81;146617;600;46013;-68
2024/02/14 03:21:51;;;;;;;;;5.00;3.25;;;;;12.63;45.52;100591.00;146618;581;46020;-67
2024/02/14 03:25:01;;;;;;;;;12.00;10.75;;;;;12.63;45.48;100592.72;146616;578;46016;-72
2024/02/14 03:28:13;;;;;;;;;28.50;25.25;;;;;12.62;45.51;100588.34;146611;577;46021;-70
2024/02/14 03:31:14;;;;;;;;;26.00;22.00;;;;;12.64;45.67;100591.88;146611;618;46016;-72
2024/02/14 03:34:11;;;;;;;;;13.25;10.75;;;;;12.61;46.02;100590.03;146612;611;46012;-70
2024/02/14 03:37:10;;;;;;;;;21.75;16.75;;;;;12.63;46.14;100577.09;146608;585;47012;-70
2024/02/14 03:40:04;;;;;;;;;9.50;8.75;;;;;12.63;46.17;100596.19;146609;581;47010;-69
2024/02/14 03:43:04;;;;;;;;;6.00;6.00;;;;;12.58;45.88;100595.12;146620;579;46033;-70
2024/02/14 03:45:58;;;;;;;;;6.00;6.00;;;;;12.60;45.77;100600.41;146631;655;46010;-67
2024/02/14 03:48:52;;;;;;;;;6.75;6.25;;;;;12.56;45.62;100588.09;146634;609;45918;-67
2024/02/14 03:52:08;;;;;;;;;6.00;6.00;;;;;12.55;44.87;100599.31;146637;628;45020;-68
2024/02/14 03:55:13;;;;;;;;;5.25;5.00;;;;;12.55;45.53;100579.37;146633;599;45915;-71
2024/02/14 03:58:08;;;;;;;;;5.75;5.75;;;;;12.55;45.25;100583.69;146637;566;45020;-70
2024/02/14 04:01:03;;;;;;;;;7.25;5.75;;;;;12.54;45.20;100592.34;146632;590;45915;-70
2024/02/14 04:04:02;;;;;;;;;6.25;6.25;;;;;12.53;45.23;100594.06;146638;564;45011;-68
2024/02/14 04:07:01;;;;;;;;;9.00;9.00;;;;;12.50;45.07;100586.13;146632;653;45913;-69
2024/02/14 04:10:00;;;;;;;;;9.00;8.00;;;;;12.42;45.51;100588.38;146633;597;46010;-72
2024/02/14 04:12:56;;;;;;;;;9.00;8.00;;;;;12.48;45.34;100605.97;146631;585;45914;-70
2024/02/14 04:15:52;;;;;;;;;6.00;5.50;;;;;12.49;45.90;100620.72;146628;569;45020;-71
2024/02/14 04:18:58;;;;;;;;;;;;;;;;;;;;;
2024/02/14 04:21:55;;;;;;;;;9.50;8.50;;;;;12.47;46.19;100618.09;146632;640;46010;-71
2024/02/14 04:24:54;;;;;;;;;12.00;10.00;;;;;12.47;46.21;100620.69;146631;578;46012;-71
2024/02/14 04:27:46;;;;;;;;;6.75;6.75;;;;;12.46;46.70;100623.22;146634;574;45021;-70
2024/02/14 04:30:45;;;;;;;;;6.25;5.75;;;;;12.44;46.60;100610.16;146634;662;45912;-66
2024/02/14 04:33:51;;;;;;;;;5.00;4.50;;;;;12.39;46.04;100611.66;146635;564;45029;-69
2024/02/14 04:36:46;;;;;;;;;11.50;7.25;;;;;12.36;46.45;100614.13;146632;582;45913;-69
2024/02/14 04:39:39;;;;;;;;;7.25;5.00;;;;;12.35;46.75;100620.16;146635;682;45021;-68
2024/02/14 04:42:33;;;;;;;;;4.50;4.50;;;;;12.35;46.51;100629.69;146628;601;46014;-70
2024/02/14 04:45:33;;;;;;;;;5.25;4.00;;;;;12.36;46.78;100629.75;146606;582;46020;-70
2024/02/14 04:48:29;;;;;;;;;4.00;2.75;;;;;12.36;46.71;100632.34;146615;604;47014;-70
2024/02/14 04:51:22;;;;;;;;;5.00;3.75;;;;;12.37;47.07;100636.75;146619;592;47012;-71
2024/02/14 04:54:22;;;;;;;;;4.00;4.00;;;;;12.37;47.26;100639.34;146602;600;48916;-73
2024/02/14 04:57:27;;;;;;;;;2.50;2.50;;;;;12.39;47.44;100626.38;146616;581;47010;-71
2024/02/14 05:00:21;;;;;;;;;3.75;3.25;;;;;12.37;47.38;100641.06;146615;671;46016;-72
2024/02/14 05:03:21;;;;;;;;;3.00;3.00;;;;;12.39;47.39;100637.66;146620;590;46021;-70
2024/02/14 05:06:16;;;;;;;;;5.25;3.00;;;;;12.38;47.50;100641.09;146612;592;47012;-71
2024/02/14 05:09:20;;;;;;;;;4.00;3.00;;;;;12.38;47.57;100661.91;146618;643;46010;-70
2024/02/14 05:12:19;;;;;;;;;2.75;2.50;;;;;12.38;47.64;100668.81;146612;596;46030;-72
2024/02/14 05:15:19;;;;;;;;;4.50;4.00;;;;;12.37;47.16;100662.75;146610;676;46010;-72
2024/02/14 05:18:25;;;;;;;;;5.00;5.00;;;;;12.37;46.69;100634.13;146614;596;47014;-70
2024/02/14 05:21:43;;;;;;;;;3.75;2.50;;;;;12.33;46.71;100663.41;146617;592;46020;-70
2024/02/14 05:24:38;;;;;;;;;6.75;4.75;;;;;12.17;46.55;100654.06;146615;589;46028;-69
2024/02/14 05:27:41;;;;;;;;;4.00;4.00;;;;;8.07;46.70;99942.53;146620;580;46010;-67
2024/02/14 05:30:39;;;;;;;;;31.25;30.00;;;;;12.28;46.68;100671.84;146615;602;46016;-67
2024/02/14 05:33:38;;;;;;;;;4.25;4.25;;;;;12.25;45.88;100672.59;146611;575;46021;-64
2024/02/14 05:36:36;;;;;;;;;2.75;2.75;;;;;12.27;46.34;100678.75;146614;621;46016;-67
2024/02/14 05:39:42;;;;;;;;;3.50;3.00;;;;;12.27;46.99;100668.34;146621;581;46010;-69
2024/02/14 05:42:34;;;;;;;;;5.00;4.00;;;;;12.34;47.36;100679.94;146617;613;47014;-68
2024/02/14 05:45:39;;;;;;;;;6.00;6.00;;;;;12.37;47.42;100693.06;146604;575;47010;-68
2024/02/14 05:48:36;;;;;;;;;4.75;4.00;;;;;12.40;47.47;100701.00;146618;587;46017;-64
2024/02/14 05:51:44;;;;;;;;;5.00;4.50;;;;;12.46;47.55;100711.63;146622;564;46020;-66
2024/02/14 05:54:46;;;;;;;;;4.00;2.75;;;;;12.51;47.76;100728.34;146614;566;46017;-70
2024/02/14 05:57:46;;;;;;;;;4.00;3.50;;;;;12.54;47.58;100738.87;146620;607;46020;-68
2024/02/14 06:01:00;;;;;;;;;;;;;;;;;;;;;
2024/02/14 06:03:59;;;;;;;;;3.00;3.00;;;;;12.63;47.07;100747.06;146618;618;47012;-69
2024/02/14 06:07:05;;;;;;;;;3.50;3.50;;;;;12.68;47.13;100758.56;146619;580;46032;-72
2024/02/14 06:10:06;;;;;;;;;5.50;3.75;;;;;12.86;47.05;100757.56;146622;595;46010;-71
2024/02/14 06:13:08;;;;;;;;;2.75;2.75;;;;;13.71;46.30;100780.19;146613;580;46914;-71
2024/02/14 06:16:30;;;;;;;;;2.75;2.75;;;;;12.85;43.95;100472.16;146611;606;46021;-70
2024/02/14 06:19:26;;;;;;;;;4.00;3.75;;;;;14.63;44.11;100774.09;146613;595;47014;-71
2024/02/14 06:22:23;;;;;;;;;10.25;9.00;;;;;14.51;43.97;100776.28;146617;578;47010;-72
2024/02/14 06:25:22;;;;;;;;;3.75;3.75;;;;;14.50;45.69;100777.09;146617;576;46017;-74
2024/02/14 06:28:34;;;;;;;;;5.00;4.25;;;;;15.29;44.84;100785.91;146620;610;47010;-70
2024/02/14 06:31:33;;;;;;;;;4.00;4.00;;;;;15.66;42.89;100788.88;146616;580;46914;-72
2024/02/14 06:34:34;;;;;;;;;5.25;3.75;;;;;15.74;43.13;100778.72;146619;574;47010;-74
2024/02/14 06:37:28;;;;;;;;;4.25;3.25;;;;;16.02;42.39;100780.44;146617;577;46012;-73
2024/02/14 06:40:23;;;;;;;;;3.75;3.00;;;;;16.32;41.21;100790.00;146615;704;46029;-69
2024/02/14 06:43:16;;;;;;;;;2.75;2.75;;;;;16.62;41.45;100793.50;146613;669;46014;-70
2024/02/14 06:46:15;;;;;;;;;6.25;5.25;;;;;16.70;41.13;100782.34;146616;630;46010;-69
2024/02/14 06:49:11;;;;;;;;;5.50;5.50;;;;;16.54;39.84;100781.03;146618;571;46012;-70
2024/02/14 06:52:12;;;;;;;;;4.25;4.25;;;;;16.36;40.07;100781.44;146621;571;46020;-70
2024/02/14 06:55:13;;;;;;;;;4.75;3.00;;;;;16.01;40.58;100785.59;146615;616;47013;-71
2024/02/14 06:58:05;;;;;;;;;14.75;12.75;;;;;15.81;42.17;100798.09;146621;620;46010;-68
2024/02/14 07:01:03;;;;;;;;;10.75;8.00;;;;;15.71;41.91;100804.75;146605;634;47013;-71
2024/02/14 07:03:57;;;;;;;;;12.25;10.75;;;;;15.52;42.03;100805.88;146618;632;47020;-71
2024/02/14 07:06:52;;;;;;;;;9.25;8.75;;;;;15.36;42.38;100799.25;146611;563;46012;-68
2024/02/14 07:09:47;;;;;;;;;9.00;7.75;;;;;15.17;42.54;100797.75;146620;649;46030;-72
2024/02/14 07:12:45;;;;;;;;;10.00;7.00;;;;;15.18;43.01;100815.19;146615;577;47012;-69
2024/02/14 07:15:37;;;;;;;;;2.50;2.50;;;;;15.11;42.87;100825.34;146608;707;47012;-70
2024/02/14 07:18:30;;;;;;;;;7.50;6.50;;;;;14.99;43.36;100821.50;146609;615;47014;-68
2024/02/14 07:21:22;;;;;;;;;7.00;7.00;;;;;14.92;43.58;100818.62;146619;594;47010;-67
2024/02/14 07:24:19;;;;;;;;;8.75;7.25;;;;;14.94;44.11;100824.78;146616;586;46013;-67
2024/02/14 07:27:18;;;;;;;;;8.25;5.00;;;;;15.03;42.99;100817.28;146618;672;47023;-66
2024/02/14 07:30:22;;;;;;;;;6.75;5.75;;;;;15.04;43.18;100828.59;146614;598;47012;-69
2024/02/14 07:33:20;;;;;;;;;8.75;7.25;;;;;15.02;44.48;100825.94;146620;607;46020;-70
2024/02/14 07:36:27;;;;;;;;;7.75;7.75;;;;;15.02;44.41;100829.44;146618;624;46014;-68
2024/02/14 07:39:27;;;;;;;;;6.25;6.25;;;;;15.07;44.34;100834.81;146620;569;46021;-67
2024/02/14 07:42:24;;;;;;;;;6.00;5.50;;;;;15.08;43.78;100834.00;146607;582;47012;-68
2024/02/14 07:45:25;;;;;;;;;8.00;6.25;;;;;15.10;43.98;100824.47;146609;693;46020;-69
2024/02/14 07:48:28;;;;;;;;;8.00;8.00;;;;;15.15;43.79;100832.50;146614;603;46014;-66
2024/02/14 07:51:33;;;;;;;;;5.75;5.75;;;;;15.28;44.57;100844.25;146619;566;47010;-67
2024/02/14 07:54:31;;;;;;;;;6.25;6.25;;;;;15.47;43.51;100833.56;146616;620;46033;-67
2024/02/14 07:57:39;;;;;;;;;5.75;4.50;;;;;15.67;43.41;100842.09;146621;652;46020;-68
2024/02/14 08:00:41;;;;;;;;;4.50;4.00;;;;;15.66;43.15;100825.47;146616;577;46012;-66
2024/02/14 08:03:34;;;;;;;;;4.00;4.00;;;;;15.72;43.01;100847.47;146619;576;47012;-67
2024/02/14 08:06:34;;;;;;;;;4.75;4.75;;;;;15.59;43.04;100833.97;146613;570;46016;-69
2024/02/14 08:09:31;;;;;;;;;4.75;4.50;;;;;15.71;42.34;100854.44;146618;570;47021;-68
2024/02/14 08:12:26;;;;;;;;;7.25;6.50;;;;;15.62;41.85;100841.91;146615;577;46914;-69
2024/02/14 08:15:35;;;;;;;;;6.50;5.75;;;;;15.54;42.96;100853.81;146610;576;46021;-67
2024/02/14 08:18:44;;;;;;;;;4.50;4.00;;;;;15.43;41.68;100849.97;146615;575;46016;-67
2024/02/14 08:21:36;;;;;;;;;5.50;5.00;;;;;15.32;42.34;100853.94;146615;704;46020;-68
2024/02/14 08:24:37;;;;;;;;;6.50;6.00;;;;;15.27;42.87;100856.41;146614;613;46017;-66
2024/02/14 08:27:41;;;;;;;;;7.50;7.50;;;;;15.16;43.27;100866.47;146620;613;47010;-65
2024/02/14 08:30:34;;;;;;;;;9.75;6.25;;;;;15.04;42.55;100857.31;146615;573;47013;-65
2024/02/14 08:33:36;;;;;;;;;7.25;6.75;;;;;14.94;42.30;100863.94;146619;628;46020;-67
2024/02/14 08:36:41;;;;;;;;;4.25;4.25;;;;;14.82;42.88;100869.59;146616;689;46012;-68
2024/02/14 08:39:37;;;;;;;;;8.50;4.75;;;;;14.78;43.53;100865.13;146616;564;46010;-68
2024/02/14 08:42:38;;;;;;;;;4.25;4.25;;;;;14.79;43.35;100875.59;146615;670;46025;-68
2024/02/14 08:45:59;;;;;;;;;6.50;6.00;;;;;11.38;43.39;100287.00;146607;580;47010;-65
2024/02/14 08:49:01;;;;;;;;;11.00;7.00;;;;;14.78;43.74;100886.00;146618;664;46016;-66
2024/02/14 08:51:56;;;;;;;;;5.50;4.75;;;;;14.73;43.67;100891.03;146616;577;46020;-67
2024/02/14 08:54:51;;;;;;;;;8.50;7.00;;;;;14.78;44.68;100886.00;146613;631;46017;-67
2024/02/14 08:57:57;;;;;;;;;;;;;;;;;;;;;
2024/02/14 09:00:52;;;;;;;;;6.50;5.00;;;;;15.01;44.00;100882.53;146615;573;46017;-67
2024/02/14 09:03:58;;;;;;;;;5.00;4.75;;;;;15.09;43.91;100887.13;146620;613;46020;-67
2024/02/14 09:06:54;;;;;;;;;4.25;4.25;;;;;15.09;42.26;100894.94;146616;636;47012;-68
2024/02/14 09:09:54;;;;;;;;;8.00;7.00;;;;;14.96;42.46;100877.97;146618;584;46020;-69
2024/02/14 09:12:47;;;;;;;;;15.00;12.00;;;;;14.86;42.21;100881.97;146607;621;48912;-67
2024/02/14 09:15:43;;;;;;;;;11.50;9.25;;;;;14.81;42.54;100883.50;146603;579;47010;-66
2024/02/14 09:18:42;;;;;;;;;7.25;7.25;;;;;14.71;43.77;100876.19;146616;622;47012;-68
2024/02/14 09:21:44;;;;;;;;;9.00;8.75;;;;;14.71;44.68;100887.50;146620;638;46020;-66
2024/02/14 09:24:54;;;;;;;;;14.75;13.50;;;;;11.48;43.50;100333.28;146613;586;46016;-68
2024/02/14 09:27:57;;;;;;;;;16.25;13.75;;;;;14.79;43.90;100893.88;146610;565;46020;-66
2024/02/14 09:30:56;;;;;;;;;9.75;8.75;;;;;14.91;43.13;100895.16;146609;596;46040;-68
2024/02/14 09:33:56;;;;;;;;;9.25;7.50;;;;;15.08;42.56;100908.81;146623;619;46010;-67
2024/02/14 09:37:06;;;;;;;;;10.00;9.00;;;;;15.08;43.21;100909.75;146612;631;47017;-67
2024/02/14 09:39:59;;;;;;;;;7.75;7.50;;;;;15.09;43.20;100921.06;146618;606;46020;-68
2024/02/14 09:43:33;;;;;;;;;7.00;7.00;;;;;15.07;43.43;100923.59;146609;576;47028;-67
2024/02/14 09:46:32;;;;;;;;;6.50;5.00;;;;;15.09;43.04;100910.63;146608;602;46031;-67
2024/02/14 09:49:36;;;;;;;;;9.25;7.75;;;;;13.55;43.36;100628.47;146614;628;49012;-67
2024/02/14 09:52:40;;;;;;;;;8.25;6.25;;;;;15.14;42.69;100907.34;146620;665;47010;-69
2024/02/14 09:55:53;;;;;;;;;9.25;7.75;;;;;15.14;42.09;100898.59;146609;601;47016;-68
2024/02/14 09:59:00;;;;;;;;;;;;;;;;;;;;;
2024/02/14 10:02:04;;;;;;;;;5.50;4.25;;;;;15.10;41.76;100901.94;146615;588;46016;-68
2024/02/14 10:05:07;;;;;;;;;12.50;12.00;;;;;15.09;42.00;100893.22;146619;583;47010;-68
2024/02/14 10:08:23;;;;;;;;;10.25;9.25;;;;;15.15;41.30;100900.41;146607;608;46016;-68
2024/02/14 10:11:20;;;;;;;;;11.00;8.25;;;;;15.33;41.68;100885.38;146622;579;46020;-70
2024/02/14 10:14:24;;;;;;;;;6.75;6.75;;;;;15.77;41.95;100903.41;146616;586;47013;-70
2024/02/14 10:17:28;;;;;;;;;8.50;6.00;;;;;16.19;41.44;100903.88;146613;615;46012;-69
2024/02/14 10:20:33;;;;;;;;;12.50;9.75;;;;;16.58;41.69;100882.41;146611;628;47016;-69
2024/02/14 10:23:38;;;;;;;;;7.00;7.00;;;;;16.85;40.98;100898.03;146613;570;47021;-69
2024/02/14 10:26:45;;;;;;;;;7.75;6.00;;;;;16.87;39.96;100890.22;146615;620;47012;-67
2024/02/14 10:29:53;;;;;;;;;5.50;5.50;;;;;16.74;40.46;100888.97;146619;571;47010;-70
2024/02/14 10:33:02;;;;;;;;;8.00;5.50;;;;;16.78;40.84;100883.88;146614;683;47012;-69
2024/02/14 10:36:12;;;;;;;;;7.00;6.75;;;;;16.97;40.84;100884.41;146621;564;46013;-69
2024/02/14 10:39:16;;;;;;;;;10.25;8.25;;;;;17.18;41.62;100871.88;146617;580;47012;-69
2024/02/14 10:42:12;;;;;;;;;5.75;5.00;;;;;17.37;39.59;100872.38;146616;668;47020;-69
2024/02/14 10:45:18;;;;;;;;;9.00;9.00;;;;;17.64;40.24;100873.06;146615;584;46013;-69
2024/02/14 10:48:16;;;;;;;;;7.50;6.25;;;;;17.86;39.68;100853.53;146615;628;46010;-69
2024/02/14 10:51:16;;;;;;;;;7.00;6.00;;;;;18.09;39.43;100863.66;146612;712;47013;-67
2024/02/14 10:54:18;;;;;;;;;10.25;5.50;;;;;18.27;39.52;100855.34;146618;660;47029;-65
2024/02/14 10:57:23;;;;;;;;;5.75;5.50;;;;;15.05;39.99;100290.75;146617;705;46030;-69
2024/02/14 11:00:26;;;;;;;;;8.50;7.00;;;;;18.46;38.38;100854.88;146620;625;46032;-69
2024/02/14 11:03:30;;;;;;;;;8.50;7.50;;;;;18.55;38.29;100849.81;146615;724;46032;-67
2024/02/14 11:06:33;;;;;;;;;8.25;7.00;;;;;18.63;37.33;100847.34;146610;574;47010;-68
2024/02/14 11:09:44;;;;;;;;;9.25;8.50;;;;;18.64;37.43;100846.50;146613;666;46012;-69
2024/02/14 11:12:46;;;;;;;;;11.75;9.00;;;;;18.69;39.16;100837.84;146620;712;46020;-69
2024/02/14 11:15:57;;;;;;;;;9.25;8.00;;;;;18.66;37.23;100832.53;146613;579;46012;-66
2024/02/14 11:18:56;;;;;;;;;11.25;11.25;;;;;18.53;37.14;100834.88;146608;684;47010;-66
2024/02/14 11:21:51;;;;;;;;;9.75;8.00;;;;;17.50;38.29;100688.31;146608;576;47017;-67
2024/02/14 11:24:53;;;;;;;;;9.75;8.50;;;;;18.24;36.80;100846.53;146618;586;49020;-67
2024/02/14 11:28:04;;;;;;;;;8.75;8.75;;;;;18.11;38.85;100843.59;146613;625;46015;-67
2024/02/14 11:31:14;;;;;;;;;10.75;7.00;;;;;18.07;38.18;100831.25;146620;637;46021;-65
2024/02/14 11:34:13;;;;;;;;;8.50;7.50;;;;;18.07;37.78;100829.53;146617;570;47014;-66
2024/02/14 11:37:18;;;;;;;;;12.00;10.50;;;;;17.97;36.90;100827.53;146620;679;46021;-67
2024/02/14 11:40:14;;;;;;;;;9.75;8.75;;;;;17.57;37.96;100829.22;146608;594;46016;-67
2024/02/14 11:43:08;;;;;;;;;7.75;6.25;;;;;17.03;38.60;100819.97;146621;585;46010;-65
2024/02/14 11:46:08;;;;;;;;;9.00;7.00;;;;;16.49;39.79;100827.16;146614;702;46016;-67
2024/02/14 11:49:10;;;;;;;;;7.50;6.50;;;;;16.03;41.75;100831.00;146605;564;46010;-66
2024/02/14 11:52:18;;;;;;;;;;;;;;;;;;;;;
2024/02/14 11:55:22;;;;;;;;;7.00;6.00;;;;;15.37;41.71;100810.59;146621;632;46010;-66
2024/02/14 11:58:19;;;;;;;;;9.75;7.75;;;;;15.18;42.08;100809.09;146614;626;47013;-68
2024/02/14 12:01:17;;;;;;;;;9.00;8.00;;;;;15.05;42.50;100805.16;146619;611;46020;-67
2024/02/14 12:04:34;;;;;;;;;29.00;27.00;;;;;14.80;41.68;100806.03;146614;569;47012;-66
2024/02/14 12:07:29;;;;;;;;;9.75;9.75;;;;;14.69;42.56;100813.47;146613;582;46021;-69
2024/02/14 12:10:28;;;;;;;;;8.00;7.00;;;;;14.52;42.18;100810.25;146617;598;46033;-67
2024/02/14 12:13:32;;;;;;;;;9.50;9.00;;;;;14.45;42.92;100825.59;146622;585;46021;-66
2024/02/14 12:16:31;;;;;;;;;6.00;6.00;;;;;14.42;43.40;100825.47;146614;612;46016;-69
2024/02/14 12:19:26;;;;;;;;;7.00;7.00;;;;;14.42;43.67;100826.34;146612;586;46020;-69
2024/02/14 12:22:21;;;;;;;;;11.75;10.00;;;;;14.44;43.74;100827.31;146615;585;47012;-67
2024/02/14 12:25:16;;;;;;;;;12.75;12.75;;;;;14.52;44.10;100823.31;146611;670;47020;-67
2024/02/14 12:28:09;;;;;;;;;1.75;1.00;;;;;14.61;43.92;100838.41;146612;566;46017;-68
2024/02/14 12:31:03;;;;;;;;;13.25;11.50;;;;;14.70;43.21;100828.31;146619;616;46020;-69
2024/02/14 12:33:59;;;;;;;;;12.50;10.25;;;;;14.77;43.64;100832.91;146609;566;46020;-67
2024/02/14 12:37:03;;;;;;;;;10.00;8.75;;;;;14.82;44.18;100834.78;146614;592;46021;-67
2024/02/14 12:40:03;;;;;;;;;10.50;8.25;;;;;14.79;44.46;100831.22;146612;614;47012;-69
2024/02/14 12:43:07;;;;;;;;;10.50;9.50;;;;;14.95;43.58;100845.75;146621;566;46011;-67
2024/02/14 12:46:00;;;;;;;;;10.50;10.00;;;;;15.04;43.53;100845.16;146614;564;47016;-67
2024/02/14 12:48:56;;;;;;;;;9.75;8.25;;;;;15.15;44.07;100842.94;146606;671;46020;-68
2024/02/14 12:52:00;;;;;;;;;13.50;10.25;;;;;15.23;43.33;100857.13;146614;611;46037;-67
2024/02/14 12:55:00;;;;;;;;;7.25;7.25;;;;;13.55;43.04;100534.69;146612;570;46020;-67
2024/02/14 12:58:01;;;;;;;;;7.00;7.00;;;;;15.46;43.21;100844.84;146615;570;46016;-67
2024/02/14 13:01:19;;;;;;;;;12.50;9.50;;;;;15.55;42.23;100842.56;146621;675;47010;-68
2024/02/14 13:04:36;;;;;;;;;9.75;7.75;;;;;15.69;42.49;100858.72;146613;596;47012;-68
2024/02/14 13:07:51;;;;;;;;;8.50;7.50;;;;;15.83;42.00;100846.09;146621;569;46010;-68
2024/02/14 13:10:52;;;;;;;;;7.50;7.50;;;;;15.94;42.55;100866.50;146615;608;46914;-68
2024/02/14 13:13:54;;;;;;;;;5.00;5.00;;;;;16.17;41.26;100863.72;146618;578;48011;-68
2024/02/14 13:16:54;;;;;;;;;8.00;5.75;;;;;16.38;40.97;100879.16;146611;630;47016;-67
2024/02/14 13:19:53;;;;;;;;;8.00;7.00;;;;;16.37;40.64;100828.56;146605;583;47020;-68
2024/02/14 13:22:46;;;;;;;;;7.75;7.75;;;;;16.74;40.56;100847.06;146615;692;46012;-68
2024/02/14 13:25:47;;;;;;;;;12.25;12.00;;;;;17.02;40.36;100856.59;146619;603;46010;-67
2024/02/14 13:28:46;;;;;;;;;6.00;6.00;;;;;17.23;38.00;100840.56;146607;570;47922;-69
2024/02/14 13:31:39;;;;;;;;;7.25;7.00;;;;;16.38;38.83;100748.31;146618;632;46020;-68
2024/02/14 13:34:38;;;;;;;;;6.50;6.50;;;;;16.67;38.80;100843.41;146609;577;47914;-70
2024/02/14 13:37:42;;;;;;;;;8.50;8.00;;;;;16.51;39.78;100820.22;146616;571;47020;-68
2024/02/14 13:40:39;;;;;;;;;9.00;6.25;;;;;16.65;38.70;100818.88;146613;685;47012;-67
2024/02/14 13:43:38;;;;;;;;;7.50;7.50;;;;;16.55;39.66;100822.09;146620;670;46020;-67
2024/02/14 13:46:36;;;;;;;;;7.75;7.00;;;;;16.30;39.94;100830.97;146615;590;46016;-68
2024/02/14 13:49:46;;;;;;;;;10.50;9.00;;;;;15.90;40.64;100837.59;146609;604;46021;-66
2024/02/14 13:52:51;;;;;;;;;9.50;7.50;;;;;15.59;40.67;100836.56;146613;707;47016;-66
2024/02/14 13:55:51;;;;;;;;;10.50;7.00;;;;;15.29;40.99;100849.50;146619;620;46019;-69
2024/02/14 13:58:48;;;;;;;;;14.50;13.00;;;;;15.14;41.67;100854.19;146614;609;46016;-67
2024/02/14 14:01:54;;;;;;;;;7.25;7.00;;;;;14.96;41.90;100842.28;146614;691;46020;-68
2024/02/14 14:04:52;;;;;;;;;15.50;12.50;;;;;14.96;42.79;100862.28;146614;613;46017;-70
2024/02/14 14:07:46;;;;;;;;;11.50;9.75;;;;;14.90;42.76;100859.47;146615;593;46020;-70
2024/02/14 14:10:47;;;;;;;;;13.00;11.25;;;;;14.85;42.56;100864.50;146614;713;47013;-68